Time;durP1;ratioP1;P1;durP2;ratioP2;P2;SDS_P1;SDS_P2;PMS_P1;PMS_P2;Temp;Humidity;BMP_temperature;BMP_pressure;BME280_temperature;BME280_humidity;BME280_pressure;Samples;Min_cycle;Max_cycle;Signal;HPM_P1;HPM_P2
2023/07/07 00:00:36;;;;;;;19.65;13.27;;;;;;;;;;5022707;28;20032;-79
2023/07/07 00:03:01;;;;;;;20.80;13.65;;;;;;;;;;5056998;28;20094;-79
2023/07/07 00:05:27;;;;;;;23.58;13.65;;;;;;;;;;5039309;28;20036;-79
2023/07/07 00:07:52;;;;;;;18.65;13.85;;;;;;;;;;5022386;28;20099;-79
2023/07/07 00:10:18;;;;;;;23.20;14.40;;;;;;;;;;5021929;28;20032;-79
2023/07/07 00:12:44;;;;;;;20.55;14.27;;;;;;;;;;5022263;28;20368;-78
2023/07/07 00:15:10;;;;;;;18.33;14.13;;;;;;;;;;5022364;28;20222;-78
2023/07/07 00:17:35;;;;;;;19.10;14.20;;;;;;;;;;5056523;28;20108;-79
2023/07/07 00:20:06;;;;;;;23.95;14.93;;;;;;;;;;5056509;28;20025;-78
2023/07/07 00:22:32;;;;;;;23.73;15.30;;;;;;;;;;5022823;28;20064;-78
2023/07/07 00:24:58;;;;;;;22.73;14.40;;;;;;;;;;5038490;28;20032;-79
2023/07/07 00:27:23;;;;;;;20.63;13.65;;;;;;;;;;5056405;28;20029;-78
2023/07/07 00:29:49;;;;;;;20.25;14.60;;;;;;;;;;5056367;28;20086;-78
2023/07/07 00:32:14;;;;;;;20.15;13.63;;;;;;;;;;5005668;28;20427;-78
2023/07/07 00:34:39;;;;;;;20.00;13.05;;;;;;;;;;5055756;28;20033;-79
2023/07/07 00:37:05;;;;;;;20.25;14.23;;;;;;;;;;5021716;28;20037;-79
2023/07/07 00:39:30;;;;;;;17.83;13.20;;;;;;;;;;5056078;28;20025;-78
2023/07/07 00:41:56;;;;;;;18.52;12.88;;;;;;;;;;5005811;28;20029;-79
2023/07/07 00:44:24;;;;;;;17.88;12.40;;;;;;;;;;5055731;28;20131;-77
2023/07/07 00:46:49;;;;;;;20.27;13.90;;;;;;;;;;5022364;28;20029;-79
2023/07/07 00:49:17;;;;;;;16.85;13.50;;;;;;;;;;5021360;28;20029;-78
2023/07/07 00:51:47;;;;;;;17.42;14.18;;;;;;;;;;5021671;28;20029;-79
2023/07/07 00:54:18;;;;;;;19.90;13.65;;;;;;;;;;5056174;28;20387;-78
2023/07/07 00:56:47;;;;;;;18.27;13.25;;;;;;;;;;5037923;28;20444;-78
2023/07/07 00:59:16;;;;;;;15.93;12.90;;;;;;;;;;5038681;28;20036;-78
2023/07/07 01:01:42;;;;;;;18.05;13.02;;;;;;;;;;5021971;28;20357;-78
2023/07/07 01:04:09;;;;;;;17.95;13.32;;;;;;;;;;5037850;28;20040;-78
2023/07/07 01:06:37;;;;;;;15.80;13.13;;;;;;;;;;5037689;28;20033;-79
2023/07/07 01:09:08;;;;;;;20.70;12.80;;;;;;;;;;5021509;28;20387;-78
2023/07/07 01:11:34;;;;;;;16.70;12.07;;;;;;;;;;5022726;28;20040;-78
2023/07/07 01:14:00;;;;;;;17.33;12.50;;;;;;;;;;5004690;28;20128;-79
2023/07/07 01:17:07;;;;;;;16.63;11.65;;;;;;;;;;5037692;28;20020;-79
2023/07/07 01:20:17;;;;;;;20.48;12.40;;;;;;;;;;5037731;28;20033;-78
2023/07/07 01:22:46;;;;;;;18.90;12.05;;;;;;;;;;5049532;28;20456;-80
2023/07/07 01:25:23;;;;;;;21.42;12.77;;;;;;;;;;5055178;28;20039;-79
2023/07/07 01:27:58;;;;;;;18.50;12.00;;;;;;;;;;5037545;28;20033;-79
2023/07/07 01:30:26;;;;;;;15.35;11.25;;;;;;;;;;5055047;28;20065;-79
2023/07/07 01:32:51;;;;;;;15.32;11.60;;;;;;;;;;5054893;28;20064;-79
2023/07/07 01:35:19;;;;;;;19.00;11.70;;;;;;;;;;5021053;28;20072;-79
2023/07/07 01:37:56;;;;;;;14.20;11.23;;;;;;;;;;5037129;28;20372;-79
2023/07/07 01:40:32;;;;;;;17.67;11.68;;;;;;;;;;5037324;28;20075;-78
2023/07/07 01:43:00;;;;;;;14.02;11.27;;;;;;;;;;5037717;28;20036;-79
2023/07/07 01:45:31;;;;;;;14.48;10.82;;;;;;;;;;5020787;28;20025;-80
2023/07/07 01:48:18;;;;;;;14.63;11.50;;;;;;;;;;5020912;28;20102;-79
2023/07/07 01:50:44;;;;;;;16.85;11.32;;;;;;;;;;5036842;28;20056;-79
2023/07/07 01:53:11;;;;;;;16.27;11.18;;;;;;;;;;5020600;28;20052;-78
2023/07/07 01:55:40;;;;;;;16.70;11.88;;;;;;;;;;5037218;28;20056;-78
2023/07/07 01:58:06;;;;;;;16.33;12.05;;;;;;;;;;5004168;28;20025;-79
2023/07/07 02:00:32;;;;;;;19.58;12.48;;;;;;;;;;5020127;28;20048;-78
2023/07/07 02:02:58;;;;;;;15.85;12.52;;;;;;;;;;5054723;28;20083;-78
2023/07/07 02:05:23;;;;;;;17.02;12.52;;;;;;;;;;5020426;28;20021;-78
2023/07/07 02:07:49;;;;;;;16.77;11.77;;;;;;;;;;5054436;28;20886;-78
2023/07/07 02:10:14;;;;;;;18.23;12.80;;;;;;;;;;5020304;28;20036;-78
2023/07/07 02:12:40;;;;;;;14.35;11.82;;;;;;;;;;5055174;28;20333;-78
2023/07/07 02:15:06;;;;;;;22.33;12.95;;;;;;;;;;5020050;28;20025;-79
2023/07/07 02:17:31;;;;;;;20.52;13.23;;;;;;;;;;5020232;28;20021;-79
2023/07/07 02:19:57;;;;;;;17.67;12.45;;;;;;;;;;5038053;28;20472;-79
2023/07/07 02:22:22;;;;;;;18.83;12.57;;;;;;;;;;5054727;28;20021;-78
2023/07/07 02:24:48;;;;;;;18.95;13.18;;;;;;;;;;5022336;28;20025;-78
2023/07/07 02:27:14;;;;;;;19.45;12.88;;;;;;;;;;5039803;28;20021;-79
2023/07/07 02:29:39;;;;;;;19.20;13.27;;;;;;;;;;5056210;28;20124;-78
2023/07/07 02:32:05;;;;;;;19.00;13.05;;;;;;;;;;5055027;28;20056;-79
2023/07/07 02:34:31;;;;;;;18.20;13.20;;;;;;;;;;5035758;28;20041;-79
2023/07/07 02:36:57;;;;;;;21.83;13.25;;;;;;;;;;5019924;28;20084;-77
2023/07/07 02:39:22;;;;;;;19.73;14.07;;;;;;;;;;5055957;28;20032;-78
2023/07/07 02:41:48;;;;;;;20.88;14.07;;;;;;;;;;5056391;28;20029;-77
2023/07/07 02:44:13;;;;;;;19.38;13.40;;;;;;;;;;5054075;28;20041;-78
2023/07/07 02:46:39;;;;;;;17.83;13.45;;;;;;;;;;5019806;28;20108;-79
2023/07/07 02:49:04;;;;;;;20.00;13.65;;;;;;;;;;5036126;28;20025;-79
2023/07/07 02:51:30;;;;;;;18.50;13.30;;;;;;;;;;5036634;28;20033;-78
2023/07/07 02:53:56;;;;;;;19.02;13.68;;;;;;;;;;5068355;28;20024;-78
2023/07/07 02:56:21;;;;;;;20.50;14.10;;;;;;;;;;5038913;28;20012;-80
2023/07/07 02:58:47;;;;;;;18.38;13.10;;;;;;;;;;5034027;28;20005;-78
2023/07/07 03:01:15;;;;;;;20.38;14.20;;;;;;;;;;5047123;28;20440;-78
2023/07/07 03:03:45;;;;;;;21.35;14.77;;;;;;;;;;5014814;28;20053;-78
2023/07/07 03:06:12;;;;;;;;;;;;;;;;;;5020208;28;20029;-78
2023/07/07 03:08:37;;;;;;;18.70;14.15;;;;;;;;;;5036015;28;19913;-79
2023/07/07 03:11:07;;;;;;;18.67;13.82;;;;;;;;;;5052930;28;20043;-79
2023/07/07 03:13:32;;;;;;;23.37;14.37;;;;;;;;;;5019679;28;20119;-78
2023/07/07 03:15:58;;;;;;;22.70;14.02;;;;;;;;;;5020102;28;20112;-78
2023/07/07 03:18:23;;;;;;;21.10;14.15;;;;;;;;;;5036033;28;20041;-78
2023/07/07 03:20:48;;;;;;;21.95;14.00;;;;;;;;;;5035834;28;20033;-78
2023/07/07 03:23:16;;;;;;;22.38;14.23;;;;;;;;;;5053696;28;20526;-77
2023/07/07 03:25:41;;;;;;;25.58;14.40;;;;;;;;;;5002983;28;20036;-78
2023/07/07 03:28:07;;;;;;;18.60;13.75;;;;;;;;;;5019275;28;20025;-78
2023/07/07 03:30:34;;;;;;;19.85;14.18;;;;;;;;;;5019564;28;20033;-78
2023/07/07 03:33:00;;;;;;;22.85;14.40;;;;;;;;;;5053584;28;20387;-79
2023/07/07 03:35:25;;;;;;;18.38;13.88;;;;;;;;;;5053473;28;20025;-78
2023/07/07 03:37:50;;;;;;;20.20;14.23;;;;;;;;;;5053351;28;20021;-78
2023/07/07 03:40:16;;;;;;;18.63;13.60;;;;;;;;;;5053297;28;20025;-78
2023/07/07 03:42:41;;;;;;;17.40;13.57;;;;;;;;;;5053416;28;20033;-79
2023/07/07 03:45:07;;;;;;;19.20;12.80;;;;;;;;;;5037428;28;20102;-79
2023/07/07 03:47:33;;;;;;;18.67;13.77;;;;;;;;;;5057146;28;20025;-79
2023/07/07 03:49:59;;;;;;;18.98;13.80;;;;;;;;;;5040055;28;20074;-80
2023/07/07 03:52:25;;;;;;;21.48;13.30;;;;;;;;;;5023010;28;20476;-79
2023/07/07 03:54:50;;;;;;;19.30;13.75;;;;;;;;;;5039547;28;20049;-79
2023/07/07 03:57:15;;;;;;;18.05;13.48;;;;;;;;;;5022790;28;20033;-79
2023/07/07 03:59:41;;;;;;;21.15;13.95;;;;;;;;;;5006340;28;20029;-79
2023/07/07 04:02:06;;;;;;;21.88;13.35;;;;;;;;;;5057362;28;20029;-80
2023/07/07 04:04:32;;;;;;;17.88;12.95;;;;;;;;;;5038871;28;20031;-80
2023/07/07 04:06:58;;;;;;;18.70;12.98;;;;;;;;;;5022590;28;20035;-80
2023/07/07 04:09:23;;;;;;;26.30;13.25;;;;;;;;;;5022939;28;20440;-79
2023/07/07 04:11:49;;;;;;;20.85;12.98;;;;;;;;;;5056393;28;20101;-79
2023/07/07 04:14:14;;;;;;;21.70;13.23;;;;;;;;;;5005922;28;20132;-79
2023/07/07 04:16:39;;;;;;;20.35;13.45;;;;;;;;;;5006118;28;20371;-79
2023/07/07 04:19:05;;;;;;;17.73;13.73;;;;;;;;;;5056389;28;20451;-79
2023/07/07 04:21:30;;;;;;;19.90;13.13;;;;;;;;;;5038675;28;20353;-79
2023/07/07 04:23:57;;;;;;;17.45;13.75;;;;;;;;;;5056613;28;20383;-80
2023/07/07 04:26:23;;;;;;;18.33;13.50;;;;;;;;;;5022217;28;20159;-79
2023/07/07 04:28:51;;;;;;;20.45;12.50;;;;;;;;;;5038539;28;20033;-80
2023/07/07 04:31:16;;;;;;;17.35;12.98;;;;;;;;;;5022601;28;20033;-79
2023/07/07 04:33:42;;;;;;;18.75;12.85;;;;;;;;;;5021969;28;20036;-79
2023/07/07 04:36:09;;;;;;;19.75;12.57;;;;;;;;;;5056363;28;20036;-79
2023/07/07 04:38:34;;;;;;;20.17;12.57;;;;;;;;;;5056303;28;20037;-79
2023/07/07 04:41:18;;;;;;;23.45;11.98;;;;;;;;;;5021858;28;20127;-78
2023/07/07 04:43:45;;;;;;;18.20;12.23;;;;;;;;;;5021962;28;20457;-79
2023/07/07 04:46:13;;;;;;;16.02;11.57;;;;;;;;;;5038318;28;20028;-79
2023/07/07 04:48:39;;;;;;;14.93;12.05;;;;;;;;;;5005957;28;20060;-80
2023/07/07 04:51:07;;;;;;;21.08;12.85;;;;;;;;;;5038242;28;20060;-79
2023/07/07 04:53:32;;;;;;;20.35;12.45;;;;;;;;;;5038280;28;20025;-80
2023/07/07 04:55:58;;;;;;;18.33;12.20;;;;;;;;;;5036435;28;20510;-80
2023/07/07 04:58:25;;;;;;;17.30;12.43;;;;;;;;;;5022685;28;20116;-78
2023/07/07 05:00:52;;;;;;;15.77;12.05;;;;;;;;;;5021542;28;20033;-79
2023/07/07 05:03:17;;;;;;;18.33;12.27;;;;;;;;;;5021668;28;20487;-79
2023/07/07 05:05:43;;;;;;;16.80;12.23;;;;;;;;;;5038359;28;20028;-80
2023/07/07 05:08:08;;;;;;;16.42;11.80;;;;;;;;;;5005238;28;20029;-80
2023/07/07 05:10:34;;;;;;;17.73;11.52;;;;;;;;;;5021463;28;20025;-79
2023/07/07 05:12:59;;;;;;;15.80;11.65;;;;;;;;;;5037500;28;20021;-80
2023/07/07 05:15:25;;;;;;;16.27;11.50;;;;;;;;;;5037794;28;20020;-79
2023/07/07 05:17:51;;;;;;;15.57;11.13;;;;;;;;;;5037512;28;20025;-80
2023/07/07 05:20:16;;;;;;;14.70;10.88;;;;;;;;;;5055014;28;20028;-79
2023/07/07 05:22:42;;;;;;;16.23;11.02;;;;;;;;;;5055205;28;20033;-80
2023/07/07 05:25:08;;;;;;;20.90;11.20;;;;;;;;;;5037186;28;20068;-80
2023/07/07 05:27:33;;;;;;;17.85;10.77;;;;;;;;;;5037416;28;20032;-81
2023/07/07 05:29:58;;;;;;;20.40;11.38;;;;;;;;;;5055282;28;20025;-80
2023/07/07 05:32:24;;;;;;;14.00;10.75;;;;;;;;;;5054993;28;20467;-80
2023/07/07 05:34:50;;;;;;;17.77;10.55;;;;;;;;;;5037004;28;20029;-80
2023/07/07 05:37:15;;;;;;;15.35;10.50;;;;;;;;;;5044482;28;20036;-83
2023/07/07 05:39:42;;;;;;;16.70;10.20;;;;;;;;;;5062750;28;20040;-84
2023/07/07 05:42:10;;;;;;;15.60;10.18;;;;;;;;;;5048000;28;20074;-89
2023/07/07 05:44:36;;;;;;;16.80;10.32;;;;;;;;;;5026286;28;20033;-83
2023/07/07 05:47:01;;;;;;;13.48;10.15;;;;;;;;;;5059670;28;20086;-82
2023/07/07 05:49:27;;;;;;;14.32;9.55;;;;;;;;;;5060070;28;20082;-84
2023/07/07 05:51:52;;;;;;;16.05;9.52;;;;;;;;;;5059393;28;20379;-80
2023/07/07 05:54:18;;;;;;;17.77;9.93;;;;;;;;;;5041959;28;20033;-80
2023/07/07 05:56:43;;;;;;;13.25;9.25;;;;;;;;;;5025108;28;20036;-80
2023/07/07 05:59:09;;;;;;;13.35;9.45;;;;;;;;;;5060162;28;20029;-80
2023/07/07 06:01:35;;;;;;;12.60;9.23;;;;;;;;;;5042762;28;20033;-79
2023/07/07 06:04:01;;;;;;;12.50;9.07;;;;;;;;;;5061393;28;20029;-79
2023/07/07 06:06:26;;;;;;;17.50;8.93;;;;;;;;;;5042021;28;20078;-80
2023/07/07 06:08:52;;;;;;;15.98;8.90;;;;;;;;;;5024126;28;20031;-78
2023/07/07 06:11:17;;;;;;;13.50;9.00;;;;;;;;;;5007426;28;20029;-80
2023/07/07 06:13:43;;;;;;;19.10;10.30;;;;;;;;;;5040599;28;20121;-81
2023/07/07 06:16:08;;;;;;;13.88;11.15;;;;;;;;;;5039925;28;20360;-80
2023/07/07 06:18:34;;;;;;;23.83;10.50;;;;;;;;;;5040014;28;20097;-78
2023/07/07 06:21:07;;;;;;;12.63;8.98;;;;;;;;;;5060927;28;20039;-81
2023/07/07 06:23:33;;;;;;;14.52;9.00;;;;;;;;;;5044685;28;20025;-79
2023/07/07 06:25:59;;;;;;;18.80;8.88;;;;;;;;;;5039963;28;20075;-78
2023/07/07 06:28:25;;;;;;;18.10;9.13;;;;;;;;;;5025746;28;20496;-78
2023/07/07 06:30:53;;;;;;;14.20;8.75;;;;;;;;;;5024417;28;20113;-78
2023/07/07 06:33:19;;;;;;;14.45;9.05;;;;;;;;;;5057999;28;20029;-79
2023/07/07 06:35:45;;;;;;;10.95;8.70;;;;;;;;;;5023768;28;20036;-81
2023/07/07 06:38:11;;;;;;;10.52;8.30;;;;;;;;;;5026050;28;20033;-80
2023/07/07 06:40:36;;;;;;;10.77;8.50;;;;;;;;;;5042397;28;20452;-82
2023/07/07 06:43:02;;;;;;;13.70;8.85;;;;;;;;;;5012375;28;20029;-82
2023/07/07 06:45:31;;;;;;;12.35;8.88;;;;;;;;;;5028027;28;20048;-80
2023/07/07 06:47:57;;;;;;;13.03;8.40;;;;;;;;;;5042685;28;20025;-82
2023/07/07 06:50:35;;;;;;;12.98;8.27;;;;;;;;;;5025772;28;20750;-80
2023/07/07 06:53:00;;;;;;;16.00;8.45;;;;;;;;;;5042047;28;20082;-79
2023/07/07 06:55:26;;;;;;;12.65;8.70;;;;;;;;;;5058889;28;20115;-80
2023/07/07 06:57:51;;;;;;;12.55;8.50;;;;;;;;;;5058947;28;20025;-81
2023/07/07 07:00:18;;;;;;;15.68;8.13;;;;;;;;;;5039938;28;20476;-80
2023/07/07 07:02:43;;;;;;;17.95;8.00;;;;;;;;;;5056233;28;20041;-80
2023/07/07 07:05:09;;;;;;;13.13;7.90;;;;;;;;;;5019952;28;20108;-79
2023/07/07 07:07:34;;;;;;;13.00;8.25;;;;;;;;;;5035982;28;20365;-80
2023/07/07 07:10:00;;;;;;;13.80;8.00;;;;;;;;;;5053646;28;20029;-79
2023/07/07 07:12:26;;;;;;;13.55;8.20;;;;;;;;;;5019470;28;20040;-80
2023/07/07 07:14:52;;;;;;;11.90;7.93;;;;;;;;;;5035570;28;20083;-80
2023/07/07 07:17:18;;;;;;;9.85;8.30;;;;;;;;;;5053802;28;20330;-79
2023/07/07 07:19:43;;;;;;;13.48;8.48;;;;;;;;;;5036873;28;20021;-80
2023/07/07 07:22:09;;;;;;;10.63;8.00;;;;;;;;;;5024860;28;20135;-79
2023/07/07 07:24:34;;;;;;;17.25;8.85;;;;;;;;;;5045807;28;20124;-79
2023/07/07 07:27:00;;;;;;;14.32;9.80;;;;;;;;;;5062976;28;20025;-79
2023/07/07 07:29:25;;;;;;;9.18;7.85;;;;;;;;;;5060251;28;20026;-79
2023/07/07 07:31:51;;;;;;;11.40;7.88;;;;;;;;;;5024244;28;20021;-81
2023/07/07 07:34:29;;;;;;;13.52;8.10;;;;;;;;;;5057477;28;20096;-79
2023/07/07 07:36:58;;;;;;;12.13;8.10;;;;;;;;;;5060843;28;20036;-80
2023/07/07 07:39:23;;;;;;;11.05;7.57;;;;;;;;;;5044905;28;20025;-79
2023/07/07 07:41:49;;;;;;;10.38;7.70;;;;;;;;;;5026105;28;20139;-79
2023/07/07 07:44:15;;;;;;;14.88;8.30;;;;;;;;;;5043803;28;20048;-79
2023/07/07 07:46:42;;;;;;;15.10;8.00;;;;;;;;;;5045045;28;20078;-80
2023/07/07 07:49:07;;;;;;;10.52;7.90;;;;;;;;;;5009805;28;20093;-80
2023/07/07 07:51:37;;;;;;;14.98;7.90;;;;;;;;;;5025954;28;20080;-79
2023/07/07 07:54:02;;;;;;;;;;;;;;;;;;5060469;28;20445;-81
2023/07/07 07:56:28;;;;;;;13.32;8.15;;;;;;;;;;5060503;28;19944;-79
2023/07/07 07:58:53;;;;;;;11.18;6.90;;;;;;;;;;5027314;28;20029;-78
2023/07/07 08:01:19;;;;;;;10.40;6.88;;;;;;;;;;5062151;28;20029;-79
2023/07/07 08:03:47;;;;;;;10.63;7.50;;;;;;;;;;5043640;28;20029;-80
2023/07/07 08:06:12;;;;;;;18.23;7.32;;;;;;;;;;5062797;28;20116;-78
2023/07/07 08:08:38;;;;;;;7.95;7.00;;;;;;;;;;5025757;28;20431;-78
2023/07/07 08:11:04;;;;;;;10.02;6.80;;;;;;;;;;5042020;28;20360;-79
2023/07/07 08:13:29;;;;;;;8.63;6.93;;;;;;;;;;5043606;28;20087;-79
2023/07/07 08:15:55;;;;;;;8.10;6.45;;;;;;;;;;5043095;28;20024;-78
2023/07/07 08:18:20;;;;;;;14.80;6.20;;;;;;;;;;5061784;28;20079;-79
2023/07/07 08:20:45;;;;;;;9.02;5.82;;;;;;;;;;5061174;28;20062;-79
2023/07/07 08:23:11;;;;;;;8.65;5.95;;;;;;;;;;5063016;28;20043;-79
2023/07/07 08:25:36;;;;;;;8.48;5.90;;;;;;;;;;5046260;28;20025;-80
2023/07/07 08:28:21;;;;;;;9.05;5.95;;;;;;;;;;5026856;28;20032;-79
2023/07/07 08:30:46;;;;;;;7.65;5.60;;;;;;;;;;5026557;28;20502;-79
2023/07/07 08:33:12;;;;;;;10.07;5.82;;;;;;;;;;5061825;28;20029;-77
2023/07/07 08:35:38;;;;;;;7.72;5.47;;;;;;;;;;5061953;28;20391;-79
2023/07/07 08:38:03;;;;;;;9.93;5.50;;;;;;;;;;5043777;28;20043;-80
2023/07/07 08:40:50;;;;;;;7.68;5.28;;;;;;;;;;5027507;28;20032;-79
2023/07/07 08:43:16;;;;;;;8.55;5.38;;;;;;;;;;5044749;28;20052;-78
2023/07/07 08:45:43;;;;;;;10.02;5.32;;;;;;;;;;5042939;28;20108;-78
2023/07/07 08:48:44;;;;;;;8.30;6.00;;;;;;;;;;5025583;28;20094;-79
2023/07/07 08:51:17;;;;;;;35.50;8.35;;;;;;;;;;5015509;28;20044;-79
2023/07/07 08:54:13;;;;;;;9.45;5.60;;;;;;;;;;5041889;28;20036;-79
2023/07/07 08:57:08;;;;;;;7.97;5.00;;;;;;;;;;5057763;28;20363;-80
2023/07/07 09:00:15;;;;;;;11.68;5.60;;;;;;;;;;5043358;28;20112;-79
2023/07/07 09:02:50;;;;;;;6.35;5.55;;;;;;;;;;5044352;28;20098;-80
2023/07/07 09:05:37;;;;;;;6.63;5.50;;;;;;;;;;5059683;28;20033;-78
2023/07/07 09:08:24;;;;;;;7.43;5.45;;;;;;;;;;5064484;28;20032;-88
2023/07/07 09:11:43;;;;;;;9.35;5.38;;;;;;;;;;5062243;28;20029;-87
2023/07/07 09:14:10;;;;;;;;;;;;;;;;;;4963516;29;20039;-89
2023/07/07 09:16:42;;;;;;;9.25;5.75;;;;;;;;;;4964483;29;19921;-92
2023/07/07 09:19:15;;;;;;;11.82;5.78;;;;;;;;;;4999634;28;20123;-89
2023/07/07 09:21:49;;;;;;;11.07;5.82;;;;;;;;;;5047003;28;20098;-88
2023/07/07 09:24:41;;;;;;;9.70;5.57;;;;;;;;;;5066518;28;20452;-89
2023/07/07 09:27:21;;;;;;;17.50;5.90;;;;;;;;;;5050924;28;20037;-89
2023/07/07 09:29:49;;;;;;;12.38;5.95;;;;;;;;;;5050718;28;20095;-90
2023/07/07 09:32:17;;;;;;;9.32;5.25;;;;;;;;;;5032929;28;20029;-90
2023/07/07 09:34:43;;;;;;;9.45;7.07;;;;;;;;;;5050406;28;20029;-85
2023/07/07 09:37:33;;;;;;;10.57;5.90;;;;;;;;;;5053445;28;20032;-84
2023/07/07 09:40:15;;;;;;;10.80;6.60;;;;;;;;;;5055123;28;20053;-84
2023/07/07 09:42:52;;;;;;;13.93;6.30;;;;;;;;;;5038469;28;20033;-87
2023/07/07 09:45:32;;;;;;;9.63;6.38;;;;;;;;;;5046634;28;20076;-89
2023/07/07 09:48:24;;;;;;;14.23;5.97;;;;;;;;;;5048137;28;20128;-88
2023/07/07 09:50:54;;;;;;;8.82;6.15;;;;;;;;;;5030847;28;20060;-89
2023/07/07 09:53:25;;;;;;;9.65;5.75;;;;;;;;;;5047518;28;20029;-90
2023/07/07 09:55:52;;;;;;;10.15;6.32;;;;;;;;;;5030478;28;20040;-92
2023/07/07 09:58:21;;;;;;;10.50;6.22;;;;;;;;;;5047756;28;20435;-87
2023/07/07 10:00:56;;;;;;;11.45;6.35;;;;;;;;;;5053069;28;20029;-88
2023/07/07 10:03:22;;;;;;;8.95;5.75;;;;;;;;;;5028938;28;20025;-91
2023/07/07 10:05:48;;;;;;;15.40;5.90;;;;;;;;;;5033176;28;20029;-89
2023/07/07 10:08:14;;;;;;;11.50;6.22;;;;;;;;;;5033843;28;20128;-88
2023/07/07 10:10:39;;;;;;;11.88;6.07;;;;;;;;;;5015240;28;20040;-90
2023/07/07 10:13:09;;;;;;;5.90;5.30;;;;;;;;;;5050386;28;20036;-88
2023/07/07 10:16:02;;;;;;;14.65;6.05;;;;;;;;;;5047763;28;20025;-88
2023/07/07 10:18:29;;;;;;;8.30;6.20;;;;;;;;;;5047977;28;20040;-87
2023/07/07 10:21:00;;;;;;;6.78;6.07;;;;;;;;;;5047567;28;20507;-89
2023/07/07 10:23:27;;;;;;;6.75;5.72;;;;;;;;;;5048940;28;20033;-87
2023/07/07 10:25:52;;;;;;;7.30;6.60;;;;;;;;;;5035349;28;20029;-87
2023/07/07 10:28:18;;;;;;;12.50;6.30;;;;;;;;;;5034434;28;20025;-88
2023/07/07 10:30:44;;;;;;;9.45;5.55;;;;;;;;;;5048314;28;20029;-89
2023/07/07 10:33:11;;;;;;;9.27;4.90;;;;;;;;;;5047411;28;20112;-89
2023/07/07 10:35:37;;;;;;;10.90;5.57;;;;;;;;;;5049446;28;20025;-87
2023/07/07 10:38:03;;;;;;;6.18;4.63;;;;;;;;;;5046819;28;20021;-89
2023/07/07 10:40:29;;;;;;;8.82;5.20;;;;;;;;;;5033688;28;20050;-88
2023/07/07 10:42:55;;;;;;;7.45;5.10;;;;;;;;;;5031647;28;20044;-88
2023/07/07 10:45:21;;;;;;;9.77;5.30;;;;;;;;;;5048210;28;20049;-86
2023/07/07 10:47:46;;;;;;;10.23;5.10;;;;;;;;;;5048657;28;20021;-88
2023/07/07 10:50:14;;;;;;;9.50;5.38;;;;;;;;;;5018048;28;20021;-88
2023/07/07 10:52:55;;;;;;;7.05;5.50;;;;;;;;;;5048230;28;20033;-86
2023/07/07 10:55:43;;;;;;;9.15;4.90;;;;;;;;;;5069136;28;20024;-89
2023/07/07 10:58:23;;;;;;;6.53;4.80;;;;;;;;;;5049789;28;20037;-90
2023/07/07 11:01:30;;;;;;;9.40;5.07;;;;;;;;;;5051209;28;20127;-88
2023/07/07 11:04:28;;;;;;;9.50;5.38;;;;;;;;;;5070088;28;20029;-87
2023/07/07 11:07:15;;;;;;;7.43;4.93;;;;;;;;;;4981730;28;20039;-86
2023/07/07 11:10:09;;;;;;;6.07;5.47;;;;;;;;;;5055017;28;20021;-87
2023/07/07 11:12:37;;;;;;;10.20;6.10;;;;;;;;;;5071393;28;20033;-87
2023/07/07 11:15:03;;;;;;;12.57;6.00;;;;;;;;;;5070611;28;20036;-85
2023/07/07 11:17:45;;;;;;;8.27;5.38;;;;;;;;;;5069760;28;20029;-88
2023/07/07 11:20:23;;;;;;;7.28;5.25;;;;;;;;;;5071437;28;20025;-90
2023/07/07 11:23:17;;;;;;;10.82;4.97;;;;;;;;;;5053648;28;20111;-89
2023/07/07 11:25:54;;;;;;;10.48;4.97;;;;;;;;;;5040329;28;20036;-90
2023/07/07 11:28:45;;;;;;;9.40;4.72;;;;;;;;;;5053555;28;20025;-87
2023/07/07 11:31:20;;;;;;;8.32;5.40;;;;;;;;;;5040456;28;20060;-90
2023/07/07 11:34:26;;;;;;;10.40;5.28;;;;;;;;;;5052751;28;20033;-88
2023/07/07 11:37:21;;;;;;;8.32;4.97;;;;;;;;;;5057899;28;20033;-87
2023/07/07 11:39:56;;;;;;;7.45;4.75;;;;;;;;;;5054994;28;20067;-89
2023/07/07 11:42:32;;;;;;;5.65;4.43;;;;;;;;;;5059867;28;20029;-89
2023/07/07 11:45:23;;;;;;;9.32;4.05;;;;;;;;;;5061018;28;20104;-86
2023/07/07 11:47:55;;;;;;;6.18;4.65;;;;;;;;;;5047006;28;20056;-89
2023/07/07 11:50:34;;;;;;;9.98;4.25;;;;;;;;;;5061011;28;20101;-87
2023/07/07 11:53:36;;;;;;;8.68;4.28;;;;;;;;;;5058702;28;20029;-85
2023/07/07 11:56:19;;;;;;;11.88;7.25;;;;;;;;;;5059128;28;20025;-89
2023/07/07 11:58:54;;;;;;;8.88;5.10;;;;;;;;;;5049981;28;20155;-87
2023/07/07 12:01:29;;;;;;;14.32;11.50;;;;;;;;;;5049164;28;20049;-85
2023/07/07 12:04:25;;;;;;;10.50;7.07;;;;;;;;;;5034348;28;20127;-86
2023/07/07 12:06:53;;;;;;;13.23;6.05;;;;;;;;;;5025617;28;20079;-89
2023/07/07 12:09:25;;;;;;;9.00;7.10;;;;;;;;;;5053339;28;20087;-88
2023/07/07 12:12:36;;;;;;;9.25;5.22;;;;;;;;;;5057096;28;20082;-89
2023/07/07 12:15:15;;;;;;;8.68;5.72;;;;;;;;;;5076228;28;20028;-87
2023/07/07 12:18:14;;;;;;;8.15;6.03;;;;;;;;;;5060887;28;20013;-86
2023/07/07 12:20:52;;;;;;;10.23;6.85;;;;;;;;;;5020932;28;20075;-88
2023/07/07 12:23:20;;;;;;;10.38;4.85;;;;;;;;;;5057950;28;20044;-86
2023/07/07 12:25:46;;;;;;;7.20;5.25;;;;;;;;;;5069828;28;20025;-91
2023/07/07 12:28:11;;;;;;;6.00;5.35;;;;;;;;;;5052542;28;20094;-88
2023/07/07 12:30:47;;;;;;;6.50;4.93;;;;;;;;;;5020883;28;20036;-85
2023/07/07 12:33:14;;;;;;;6.88;5.20;;;;;;;;;;5052565;28;20040;-86
2023/07/07 12:35:52;;;;;;;8.30;5.15;;;;;;;;;;5049509;28;20087;-86
2023/07/07 12:38:31;;;;;;;6.35;4.85;;;;;;;;;;5049742;28;20028;-84
2023/07/07 12:41:00;;;;;;;8.97;4.93;;;;;;;;;;5067516;28;20028;-87
2023/07/07 12:43:36;;;;;;;7.45;4.82;;;;;;;;;;5049862;28;20045;-86
2023/07/07 12:46:03;;;;;;;6.22;4.70;;;;;;;;;;5047410;28;20025;-84
2023/07/07 12:48:29;;;;;;;7.57;4.80;;;;;;;;;;5028940;28;20033;-87
2023/07/07 12:51:05;;;;;;;9.88;5.05;;;;;;;;;;5038651;28;20456;-85
2023/07/07 12:53:42;;;;;;;6.68;4.50;;;;;;;;;;5038948;28;20082;-86
2023/07/07 12:56:08;;;;;;;5.95;4.50;;;;;;;;;;5038983;28;20028;-84
2023/07/07 12:58:36;;;;;;;9.02;5.00;;;;;;;;;;5056057;28;20029;-80
2023/07/07 13:01:26;;;;;;;8.73;4.72;;;;;;;;;;5055866;28;20029;-80
2023/07/07 13:04:00;;;;;;;;;;;;;;;;;;5056554;28;20467;-80
2023/07/07 13:06:36;;;;;;;7.38;5.57;;;;;;;;;;5055765;28;20309;-80
2023/07/07 13:09:03;;;;;;;11.18;5.10;;;;;;;;;;5038046;28;20025;-80
2023/07/07 13:11:39;;;;;;;9.50;5.50;;;;;;;;;;5055443;28;20029;-79
2023/07/07 13:14:25;;;;;;;9.95;5.57;;;;;;;;;;5009300;28;20574;-79
2023/07/07 13:16:51;;;;;;;6.80;4.90;;;;;;;;;;5032338;28;20033;-79
2023/07/07 13:19:17;;;;;;;6.25;5.32;;;;;;;;;;5038837;28;20123;-79
2023/07/07 13:21:43;;;;;;;8.40;5.68;;;;;;;;;;5043112;28;20028;-77
2023/07/07 13:24:08;;;;;;;9.02;5.75;;;;;;;;;;5032379;28;20021;-78
2023/07/07 13:26:33;;;;;;;10.65;5.45;;;;;;;;;;5015462;28;20116;-79
2023/07/07 13:29:00;;;;;;;8.45;5.35;;;;;;;;;;5063522;28;20048;-78
2023/07/07 13:31:26;;;;;;;7.88;5.65;;;;;;;;;;5048689;28;20032;-82
2023/07/07 13:33:51;;;;;;;7.55;5.50;;;;;;;;;;5048425;28;20035;-80
2023/07/07 13:36:17;;;;;;;6.50;5.30;;;;;;;;;;5036984;28;20042;-80
2023/07/07 13:38:44;;;;;;;7.38;5.10;;;;;;;;;;5055170;28;20033;-80
2023/07/07 13:41:10;;;;;;;8.43;5.60;;;;;;;;;;5053597;28;20032;-80
2023/07/07 13:43:39;;;;;;;9.68;5.90;;;;;;;;;;5020401;28;20045;-80
2023/07/07 13:46:25;;;;;;;10.63;5.78;;;;;;;;;;5020771;28;20065;-79
2023/07/07 13:49:00;;;;;;;8.57;5.57;;;;;;;;;;5054016;28;20024;-80
2023/07/07 13:51:37;;;;;;;11.43;6.07;;;;;;;;;;5020824;28;20028;-80
2023/07/07 13:54:04;;;;;;;9.73;5.63;;;;;;;;;;5037209;28;20384;-80
2023/07/07 13:56:29;;;;;;;9.23;5.60;;;;;;;;;;5036766;28;20032;-80
2023/07/07 13:58:54;;;;;;;8.93;5.97;;;;;;;;;;5036685;28;20029;-80
2023/07/07 14:01:30;;;;;;;9.95;6.00;;;;;;;;;;5020693;28;20029;-81
2023/07/07 14:03:57;;;;;;;11.90;5.63;;;;;;;;;;5037000;28;20024;-80
2023/07/07 14:06:24;;;;;;;8.48;5.85;;;;;;;;;;5052866;28;20459;-80
2023/07/07 14:08:50;;;;;;;7.32;5.32;;;;;;;;;;5020532;28;20360;-81
2023/07/07 14:11:18;;;;;;;13.25;5.53;;;;;;;;;;5020015;28;20032;-82
2023/07/07 14:13:43;;;;;;;11.20;6.00;;;;;;;;;;5037002;28;20031;-80
2023/07/07 14:16:15;;;;;;;6.20;5.25;;;;;;;;;;5020036;28;20128;-80
2023/07/07 14:18:45;;;;;;;9.35;5.40;;;;;;;;;;5036884;28;20492;-80
2023/07/07 14:21:13;;;;;;;7.88;5.80;;;;;;;;;;5036455;28;20023;-80
2023/07/07 14:23:39;;;;;;;9.57;5.15;;;;;;;;;;5053088;28;20028;-80
2023/07/07 14:26:04;;;;;;;9.73;6.00;;;;;;;;;;5054191;28;20025;-82
2023/07/07 14:28:37;;;;;;;7.43;5.47;;;;;;;;;;5019547;28;20032;-81
2023/07/07 14:31:03;;;;;;;7.40;5.03;;;;;;;;;;5019963;28;20052;-80
2023/07/07 14:33:31;;;;;;;9.65;5.38;;;;;;;;;;5052793;28;20025;-81
2023/07/07 14:35:58;;;;;;;12.98;5.47;;;;;;;;;;5036378;28;20082;-80
2023/07/07 14:38:28;;;;;;;8.80;5.05;;;;;;;;;;5054056;28;20353;-81
2023/07/07 14:40:55;;;;;;;7.03;5.15;;;;;;;;;;5054023;28;20083;-81
2023/07/07 14:43:25;;;;;;;8.52;4.43;;;;;;;;;;5053672;28;20119;-81
2023/07/07 14:45:57;;;;;;;10.80;4.50;;;;;;;;;;5020309;28;20029;-79
2023/07/07 14:48:24;;;;;;;6.40;4.15;;;;;;;;;;5020077;28;20076;-81